Time;durP1;ratioP1;P1;durP2;ratioP2;P2;SDS_P1;SDS_P2;PMS_P1;PMS_P2;Temp;Humidity;BMP_temperature;BMP_pressure;BME280_temperature;BME280_humidity;BME280_pressure;Samples;Min_cycle;Max_cycle;Signal;HPM_P1;HPM_P2
2022/04/13 00:01:47;;;;;;;15.75;8.63;;;;;;;12.34;27.19;101097.03;4991710;28;20046;-74
2022/04/13 00:04:15;;;;;;;20.45;9.13;;;;;;;12.54;26.77;101087.69;4991717;28;20521;-73
2022/04/13 00:06:42;;;;;;;16.00;8.73;;;;;;;12.77;26.74;101087.94;4991303;28;20112;-74
2022/04/13 00:09:10;;;;;;;14.40;8.30;;;;;;;12.84;26.90;101088.13;4991325;28;20130;-74
2022/04/13 00:11:36;;;;;;;22.98;9.27;;;;;;;12.90;26.49;101083.91;4991503;28;20093;-74
2022/04/13 00:14:03;;;;;;;17.80;8.95;;;;;;;12.72;26.81;101084.88;5001531;28;20100;-73
2022/04/13 00:16:30;;;;;;;20.50;8.88;;;;;;;12.91;26.62;101082.94;4990771;28;20078;-73
2022/04/13 00:18:57;;;;;;;19.02;9.20;;;;;;;12.60;26.77;101086.19;4990270;28;20068;-73
2022/04/13 00:21:23;;;;;;;21.30;9.82;;;;;;;12.65;26.88;101083.84;5002554;28;20069;-74
2022/04/13 00:23:50;;;;;;;19.35;9.38;;;;;;;12.92;26.63;101082.75;5001952;28;20045;-73
2022/04/13 00:26:17;;;;;;;17.88;8.85;;;;;;;13.11;26.41;101084.25;5009965;28;20138;-74
2022/04/13 00:28:43;;;;;;;17.10;8.98;;;;;;;12.98;26.59;101079.41;5005365;28;20449;-73
2022/04/13 00:31:10;;;;;;;17.58;8.60;;;;;;;12.61;26.93;101077.13;5014786;28;20049;-73
2022/04/13 00:33:37;;;;;;;15.30;8.20;;;;;;;12.92;26.63;101087.28;4991625;28;20050;-73
2022/04/13 00:36:03;;;;;;;18.70;8.75;;;;;;;12.49;27.26;101078.44;4991771;28;20383;-73
2022/04/13 00:38:30;;;;;;;20.02;8.32;;;;;;;12.47;27.32;101085.81;4991504;28;20053;-75
2022/04/13 00:40:56;;;;;;;19.00;8.68;;;;;;;12.96;26.80;101080.56;4989986;28;20069;-73
2022/04/13 00:43:24;;;;;;;20.83;8.30;;;;;;;12.85;26.83;101082.56;4997682;28;20077;-73
2022/04/13 00:45:51;;;;;;;19.20;8.82;;;;;;;12.76;26.97;101075.47;5003186;28;20038;-74
2022/04/13 00:48:31;;;;;;;16.27;9.15;;;;;;;12.67;27.11;101076.47;5011259;28;20494;-74
2022/04/13 00:50:58;;;;;;;21.45;8.93;;;;;;;13.05;26.68;101079.56;5012324;28;20454;-74
2022/04/13 00:53:24;;;;;;;16.80;8.18;;;;;;;12.74;27.06;101080.22;5025748;28;20068;-73
2022/04/13 00:55:56;;;;;;;21.52;8.15;;;;;;;12.70;27.32;101084.22;5026975;28;20041;-74
2022/04/13 00:58:26;;;;;;;20.15;9.13;;;;;;;12.70;27.32;101078.00;5026154;28;20073;-74
2022/04/13 01:00:54;;;;;;;19.10;8.80;;;;;;;13.07;26.78;101093.69;5004511;28;20129;-73
2022/04/13 01:03:24;;;;;;;18.52;9.15;;;;;;;12.83;27.21;101087.31;4995032;28;20048;-73
2022/04/13 01:09:31;;;;;;;15.98;7.97;;;;;;;12.83;27.11;101092.69;4990141;28;20053;-74
2022/04/13 01:11:58;;;;;;;21.70;9.30;;;;;;;12.87;27.24;101091.34;4991060;28;20133;-73
2022/04/13 01:14:25;;;;;;;19.73;9.55;;;;;;;12.63;27.51;101085.88;4990298;28;21904;-74
2022/04/13 01:16:51;;;;;;;18.15;9.32;;;;;;;12.38;27.89;101085.81;5000541;28;20133;-74
2022/04/13 01:19:18;;;;;;;16.40;8.75;;;;;;;12.38;27.93;101093.00;5010085;28;20505;-74
2022/04/13 01:21:58;;;;;;;23.08;9.02;;;;;;;12.20;28.13;101085.06;5010681;28;20046;-74
2022/04/13 01:24:25;;;;;;;18.98;9.43;;;;;;;12.58;27.69;101077.44;5002255;28;20141;-73
2022/04/13 01:26:51;;;;;;;15.85;8.68;;;;;;;12.37;27.95;101069.81;5006535;28;20076;-74
2022/04/13 01:29:18;;;;;;;18.45;8.95;;;;;;;12.16;28.09;101076.47;5015976;28;20138;-73
2022/04/13 01:31:45;;;;;;;23.38;8.75;;;;;;;12.65;27.89;101078.47;5005567;28;20070;-73
2022/04/13 01:34:13;;;;;;;23.30;9.48;;;;;;;12.27;28.17;101074.50;4997558;28;20097;-74
2022/04/13 01:36:39;;;;;;;18.35;8.90;;;;;;;12.60;27.72;101064.66;5005831;28;20049;-73
2022/04/13 01:39:07;;;;;;;19.48;9.63;;;;;;;12.41;28.02;101073.84;5004760;28;20124;-72
2022/04/13 01:41:33;;;;;;;19.73;9.55;;;;;;;12.23;28.24;101073.97;4991346;28;20486;-72
2022/04/13 01:44:00;;;;;;;21.13;9.95;;;;;;;12.27;28.55;101072.63;4990599;28;20054;-73
2022/04/13 01:46:26;;;;;;;22.08;9.70;;;;;;;11.63;29.32;101077.50;4990973;28;20129;-73
2022/04/13 01:48:53;;;;;;;19.17;8.98;;;;;;;11.86;29.16;101075.16;4990885;28;20122;-73
2022/04/13 01:51:20;;;;;;;20.77;9.45;;;;;;;11.84;29.05;101074.47;4991272;28;20462;-73
2022/04/13 01:53:48;;;;;;;21.15;9.38;;;;;;;12.18;28.76;101076.31;4990298;28;20402;-73
2022/04/13 01:56:15;;;;;;;20.15;9.77;;;;;;;12.14;29.12;101074.94;4990816;28;20073;-74
2022/04/13 01:58:41;;;;;;;20.30;8.25;;;;;;;12.12;28.76;101075.09;4990402;28;20505;-74
2022/04/13 02:01:08;;;;;;;20.45;9.52;;;;;;;12.31;28.40;101071.31;4988984;28;20109;-74
2022/04/13 02:03:35;;;;;;;19.15;9.70;;;;;;;12.28;28.59;101068.97;4993729;28;20046;-74
2022/04/13 02:06:03;;;;;;;16.92;8.85;;;;;;;12.41;28.51;101071.16;4994142;28;20129;-74
2022/04/13 02:08:30;;;;;;;14.68;8.45;;;;;;;12.37;28.68;101076.03;4993353;28;20073;-74
2022/04/13 02:10:57;;;;;;;16.23;9.40;;;;;;;12.11;28.84;101072.59;5012918;28;20081;-74
2022/04/13 02:13:23;;;;;;;16.92;8.52;;;;;;;11.65;29.79;101080.03;5013372;28;20469;-74
2022/04/13 02:15:50;;;;;;;17.17;8.60;;;;;;;11.78;29.50;101074.28;5012835;28;20046;-74
2022/04/13 02:18:16;;;;;;;19.00;9.02;;;;;;;11.58;29.73;101074.44;5013138;28;20125;-74
2022/04/13 02:20:43;;;;;;;21.60;9.38;;;;;;;11.61;30.04;101073.28;5013455;28;20128;-72
2022/04/13 02:23:10;;;;;;;21.30;8.95;;;;;;;11.73;29.67;101072.06;5013840;28;20069;-74
2022/04/13 02:25:36;;;;;;;17.27;8.75;;;;;;;11.69;29.83;101074.22;5017016;28;20045;-74
2022/04/13 02:28:04;;;;;;;20.58;9.15;;;;;;;12.03;29.49;101061.78;5005196;28;20092;-74
2022/04/13 02:30:31;;;;;;;23.02;9.60;;;;;;;12.00;29.42;101062.09;4999086;28;25030;-73
2022/04/13 02:32:58;;;;;;;21.13;9.75;;;;;;;12.07;29.17;101060.44;4993426;28;20046;-73
2022/04/13 02:35:26;;;;;;;16.33;8.05;;;;;;;11.75;30.00;101048.53;4995306;28;20525;-73
2022/04/13 02:37:52;;;;;;;19.45;9.43;;;;;;;12.03;29.48;101056.41;5002343;28;20046;-73
2022/04/13 02:40:19;;;;;;;19.90;9.82;;;;;;;11.37;30.46;101058.69;5005995;28;20056;-73
2022/04/13 02:42:46;;;;;;;15.13;9.18;;;;;;;11.53;30.19;101059.81;5012068;28;20473;-75
2022/04/13 02:45:13;;;;;;;17.70;8.85;;;;;;;11.85;29.78;101053.81;4994738;28;20100;-73
2022/04/13 02:47:39;;;;;;;20.45;8.73;;;;;;;11.68;29.95;101055.56;4993596;28;20073;-74
2022/04/13 02:50:07;;;;;;;23.50;9.90;;;;;;;11.52;30.42;101050.91;4993398;28;20530;-74
2022/04/13 02:52:33;;;;;;;18.17;9.10;;;;;;;11.54;30.44;101058.81;4993378;28;20571;-74
2022/04/13 02:55:00;;;;;;;20.55;9.38;;;;;;;11.13;31.00;101051.28;4992838;28;20125;-74
2022/04/13 02:57:27;;;;;;;18.40;9.73;;;;;;;10.57;31.77;101057.00;4992674;28;20096;-74
2022/04/13 02:59:53;;;;;;;20.75;9.43;;;;;;;10.47;32.46;101049.81;4991903;28;20137;-74
2022/04/13 03:02:19;;;;;;;23.05;9.27;;;;;;;10.72;31.83;101060.81;4988034;28;20544;-74
2022/04/13 03:04:47;;;;;;;15.57;8.57;;;;;;;11.21;31.30;101050.53;5003638;28;20054;-74
2022/04/13 03:07:17;;;;;;;20.30;8.93;;;;;;;10.93;31.60;101047.97;5000906;28;20050;-74
2022/04/13 03:09:44;;;;;;;17.38;9.27;;;;;;;10.97;31.52;101046.66;5003321;28;20055;-74
2022/04/13 03:12:12;;;;;;;19.13;9.52;;;;;;;11.25;31.01;101049.22;4993105;28;20046;-74
2022/04/13 03:14:40;;;;;;;21.00;9.15;;;;;;;11.37;30.97;101041.72;5005091;28;20053;-74
2022/04/13 03:17:07;;;;;;;19.20;9.85;;;;;;;11.19;31.15;101039.94;5011784;28;20049;-74
2022/04/13 03:19:34;;;;;;;19.17;9.07;;;;;;;11.13;31.26;101034.34;5012107;28;20046;-74
2022/04/13 03:22:00;;;;;;;17.42;8.60;;;;;;;11.39;31.13;101045.97;5012116;28;20129;-74
2022/04/13 03:24:27;;;;;;;22.75;10.00;;;;;;;11.24;31.31;101050.22;5013871;28;20084;-74
2022/04/13 03:26:53;;;;;;;19.90;9.07;;;;;;;11.44;30.93;101046.31;5011085;28;20120;-74
2022/04/13 03:29:20;;;;;;;25.50;9.98;;;;;;;11.12;31.21;101046.94;5012363;28;20124;-74
2022/04/13 03:31:46;;;;;;;18.85;9.00;;;;;;;10.89;31.66;101035.81;5011633;28;20129;-74
2022/04/13 03:34:13;;;;;;;19.88;10.15;;;;;;;10.45;32.57;101035.72;5006416;28;20133;-74
2022/04/13 03:36:40;;;;;;;19.75;9.68;;;;;;;10.95;31.72;101040.56;4997399;28;20046;-74
2022/04/13 03:39:07;;;;;;;20.35;9.23;;;;;;;10.80;31.88;101047.50;5015169;28;20072;-74
2022/04/13 03:41:36;;;;;;;19.95;8.95;;;;;;;10.59;32.31;101044.28;5006368;28;20077;-73
2022/04/13 03:44:04;;;;;;;18.90;9.30;;;;;;;10.62;32.37;101047.50;4992154;28;20136;-73
2022/04/13 03:46:31;;;;;;;16.67;8.77;;;;;;;10.91;31.75;101036.53;4996462;28;20097;-73
2022/04/13 03:48:58;;;;;;;20.83;9.07;;;;;;;11.23;31.67;101059.25;4991501;28;20455;-74
2022/04/13 03:51:25;;;;;;;20.05;10.05;;;;;;;11.34;31.33;101059.00;5007172;28;20457;-73
2022/04/13 03:53:51;;;;;;;24.05;10.23;;;;;;;11.06;31.71;101057.44;5011244;28;20473;-74
2022/04/13 03:56:18;;;;;;;21.77;9.82;;;;;;;11.16;31.41;101059.03;5006696;28;20133;-75
2022/04/13 03:58:44;;;;;;;27.80;9.73;;;;;;;11.31;31.36;101061.16;5011529;28;20060;-73
2022/04/13 04:01:11;;;;;;;21.83;10.13;;;;;;;11.28;31.26;101056.97;5011822;28;20045;-73
2022/04/13 04:03:37;;;;;;;19.10;9.32;;;;;;;10.80;32.27;101057.41;5011430;28;20049;-73
2022/04/13 04:06:04;;;;;;;20.63;9.35;;;;;;;11.31;31.34;101072.78;5011425;28;20121;-75
2022/04/13 04:08:35;;;;;;;29.55;9.45;;;;;;;10.61;32.58;101067.25;4996035;28;20077;-74
2022/04/13 04:11:02;;;;;;;25.23;8.97;;;;;;;11.14;31.61;101066.44;4984843;28;20066;-74
2022/04/13 04:13:28;;;;;;;20.75;9.38;;;;;;;11.30;31.52;101063.00;4991328;28;20065;-73
2022/04/13 04:15:55;;;;;;;23.27;9.45;;;;;;;10.88;32.08;101066.34;4995834;28;20073;-74
2022/04/13 04:18:22;;;;;;;22.33;9.98;;;;;;;10.92;32.21;101064.22;4997277;28;20442;-76
2022/04/13 04:20:48;;;;;;;19.60;9.20;;;;;;;10.72;32.33;101069.75;5002502;28;20042;-73
2022/04/13 04:23:15;;;;;;;21.27;10.18;;;;;;;10.95;32.12;101067.44;4991554;28;20491;-74
2022/04/13 04:25:41;;;;;;;20.85;9.63;;;;;;;10.81;32.29;101070.66;4991334;28;20052;-74
2022/04/13 04:28:10;;;;;;;19.38;9.02;;;;;;;11.34;31.55;101074.28;4999580;28;20128;-74
2022/04/13 04:30:38;;;;;;;20.80;9.27;;;;;;;11.05;32.09;101066.50;5011371;28;20625;-74
2022/04/13 04:33:05;;;;;;;25.17;10.32;;;;;;;10.78;32.46;101067.44;5010906;28;20057;-74
2022/04/13 04:35:32;;;;;;;19.80;9.50;;;;;;;10.47;32.84;101068.59;5016653;28;20128;-74
2022/04/13 04:38:00;;;;;;;21.50;10.07;;;;;;;10.80;32.42;101068.13;4990819;28;20073;-74
2022/04/13 04:40:26;;;;;;;26.02;9.77;;;;;;;10.71;32.63;101067.19;4990645;28;20050;-73
2022/04/13 04:42:54;;;;;;;20.80;9.95;;;;;;;10.93;32.20;101066.75;4990789;28;20122;-73
2022/04/13 04:45:21;;;;;;;22.33;10.93;;;;;;;10.61;32.91;101063.75;4990752;28;20058;-73
2022/04/13 04:47:52;;;;;;;21.67;9.98;;;;;;;10.55;32.75;101067.03;4990414;28;20129;-73
2022/04/13 04:50:20;;;;;;;21.27;9.83;;;;;;;10.93;32.37;101061.38;4990856;28;20108;-73
2022/04/13 04:52:47;;;;;;;21.15;9.27;;;;;;;10.99;32.30;101063.44;5001862;28;20285;-74
2022/04/13 04:55:16;;;;;;;19.38;9.27;;;;;;;10.96;32.37;101063.75;4995566;28;20077;-74
2022/04/13 04:57:44;;;;;;;19.92;9.75;;;;;;;11.12;32.05;101063.03;5009437;28;20065;-73
2022/04/13 05:00:12;;;;;;;24.50;10.02;;;;;;;10.65;32.74;101076.72;4997673;28;20138;-73
2022/04/13 05:02:39;;;;;;;20.67;9.45;;;;;;;10.76;32.63;101069.44;4994773;28;20509;-74
2022/04/13 05:05:07;;;;;;;18.33;9.88;;;;;;;10.57;33.15;101073.09;4996793;28;20123;-74
2022/04/13 05:07:33;;;;;;;19.23;9.13;;;;;;;10.65;32.97;101075.84;5005359;28;20050;-74
2022/04/13 05:10:00;;;;;;;22.27;10.45;;;;;;;11.16;31.94;101069.78;5010139;28;20046;-73
2022/04/13 05:12:27;;;;;;;17.90;9.52;;;;;;;11.52;31.80;101068.84;4990971;28;20089;-73
2022/04/13 05:14:55;;;;;;;17.98;9.82;;;;;;;10.93;32.50;101072.13;4990019;28;20507;-75
2022/04/13 05:17:23;;;;;;;20.58;9.88;;;;;;;11.49;31.46;101080.78;4990593;28;20058;-75
2022/04/13 05:19:50;;;;;;;24.23;10.48;;;;;;;11.32;31.58;101073.59;5000561;28;20137;-74
2022/04/13 05:22:17;;;;;;;23.52;9.85;;;;;;;11.76;31.24;101071.75;5010803;28;20447;-74
2022/04/13 05:24:43;;;;;;;20.27;10.73;;;;;;;11.17;31.88;101076.88;5011220;28;20128;-74
2022/04/13 05:27:10;;;;;;;22.80;9.60;;;;;;;10.86;32.37;101079.09;5005078;28;20501;-74
2022/04/13 05:29:36;;;;;;;22.25;9.05;;;;;;;11.56;31.60;101086.38;5005690;28;20410;-74
2022/04/13 05:32:03;;;;;;;22.95;10.27;;;;;;;11.59;31.42;101086.06;5001789;28;20046;-75
2022/04/13 05:34:31;;;;;;;24.95;10.02;;;;;;;11.31;31.74;101082.66;4995798;28;20058;-74
2022/04/13 05:36:58;;;;;;;18.92;9.77;;;;;;;11.66;31.11;101087.16;4990273;28;20069;-74
2022/04/13 05:39:25;;;;;;;20.55;9.45;;;;;;;11.06;32.28;101095.88;4993924;28;20058;-74
2022/04/13 05:41:51;;;;;;;26.15;9.68;;;;;;;11.37;31.74;101087.41;4993998;28;20479;-74
2022/04/13 05:44:18;;;;;;;20.70;10.13;;;;;;;12.12;30.56;101095.78;4994338;28;20060;-74
2022/04/13 05:46:44;;;;;;;25.30;10.60;;;;;;;11.85;30.88;101094.13;5000172;28;20047;-74
2022/04/13 05:49:11;;;;;;;20.95;9.40;;;;;;;11.54;31.35;101091.88;5010109;28;20126;-74
2022/04/13 05:51:37;;;;;;;22.95;9.20;;;;;;;11.53;31.55;101094.75;4998609;28;20044;-74
2022/04/13 05:54:04;;;;;;;20.90;9.40;;;;;;;11.37;31.58;101087.41;5006323;28;20049;-74
2022/04/13 05:56:30;;;;;;;26.15;10.18;;;;;;;11.21;32.20;101093.50;4999958;28;20133;-75
2022/04/13 05:58:57;;;;;;;24.33;10.38;;;;;;;11.66;31.48;101098.75;4995363;28;20042;-74
2022/04/13 06:01:23;;;;;;;17.38;9.57;;;;;;;11.26;32.40;101093.88;4993588;28;20104;-74
2022/04/13 06:03:50;;;;;;;28.02;10.10;;;;;;;12.44;30.45;101089.69;4994587;28;20058;-74
2022/04/13 06:06:17;;;;;;;27.88;10.75;;;;;;;11.95;30.96;101097.56;5004117;28;20150;-74
2022/04/13 06:08:43;;;;;;;22.45;9.82;;;;;;;13.01;29.62;101094.38;4995475;28;20046;-74
2022/04/13 06:11:10;;;;;;;26.83;10.85;;;;;;;12.82;29.66;101099.06;5013256;28;20065;-75
2022/04/13 06:13:36;;;;;;;28.95;10.45;;;;;;;13.14;29.17;101110.88;5008411;28;20573;-75
2022/04/13 06:16:04;;;;;;;29.38;10.48;;;;;;;12.85;29.41;101105.97;4994099;28;20077;-74
2022/04/13 06:18:30;;;;;;;25.70;10.80;;;;;;;13.06;29.58;101105.50;4996789;28;20503;-75
2022/04/13 06:20:57;;;;;;;27.70;10.55;;;;;;;12.59;30.38;101108.72;5011221;28;20471;-74
2022/04/13 06:23:23;;;;;;;23.58;10.18;;;;;;;13.49;28.96;101103.44;4993055;28;20081;-74
2022/04/13 06:25:50;;;;;;;19.92;9.35;;;;;;;13.21;28.91;101111.88;4999147;28;20076;-75
2022/04/13 06:28:16;;;;;;;28.35;10.80;;;;;;;12.89;29.33;101110.00;5007625;28;20050;-75
2022/04/13 06:30:43;;;;;;;21.90;9.68;;;;;;;13.53;28.84;101110.22;5008987;28;20041;-75
2022/04/13 06:33:10;;;;;;;24.27;10.45;;;;;;;13.51;28.80;101112.22;4994884;28;20081;-74
2022/04/13 06:35:37;;;;;;;18.30;9.73;;;;;;;13.23;29.50;101112.56;4995946;28;20077;-74
2022/04/13 06:38:03;;;;;;;22.52;9.93;;;;;;;13.40;29.14;101112.56;4994764;28;20469;-74
2022/04/13 06:40:30;;;;;;;23.67;9.95;;;;;;;12.96;29.81;101113.72;5002351;28;20100;-76
2022/04/13 06:42:56;;;;;;;17.92;10.35;;;;;;;12.81;30.00;101116.22;5002580;28;20129;-74
2022/04/13 06:45:23;;;;;;;20.45;10.60;;;;;;;13.26;29.37;101114.09;4990992;28;20108;-74
2022/04/13 06:47:50;;;;;;;23.67;11.10;;;;;;;12.40;30.83;101121.47;5006997;28;20069;-74
2022/04/13 06:50:17;;;;;;;19.80;10.18;;;;;;;13.10;29.72;101123.00;5011614;28;20493;-74
2022/04/13 06:52:44;;;;;;;23.23;10.13;;;;;;;13.59;29.10;101121.16;5012442;28;20100;-74
2022/04/13 06:55:11;;;;;;;24.17;10.18;;;;;;;14.10;28.04;101112.78;5007733;28;20498;-74
2022/04/13 06:57:38;;;;;;;23.77;10.95;;;;;;;13.98;28.26;101122.28;4992929;28;20061;-73
2022/04/13 07:00:10;;;;;;;22.08;9.85;;;;;;;14.68;27.22;101126.88;4993836;28;20136;-74
2022/04/13 07:02:37;;;;;;;18.13;9.63;;;;;;;14.06;28.29;101125.78;5000804;28;20097;-73
2022/04/13 07:05:24;;;;;;;31.38;10.95;;;;;;;15.87;25.90;101125.47;4996627;28;20050;-73
2022/04/13 07:07:51;;;;;;;24.48;10.82;;;;;;;15.12;26.46;101134.38;4991920;28;20066;-75
2022/04/13 07:10:18;;;;;;;27.65;10.27;;;;;;;15.12;26.59;101128.97;4996973;28;20058;-75
2022/04/13 07:12:44;;;;;;;25.35;11.25;;;;;;;15.07;26.56;101129.53;4999081;28;20119;-75
2022/04/13 07:15:11;;;;;;;19.88;10.63;;;;;;;14.22;27.75;101133.00;4998329;28;21728;-75
2022/04/13 07:17:37;;;;;;;20.83;9.88;;;;;;;15.00;26.63;101132.09;5003670;28;20124;-75
2022/04/13 07:20:05;;;;;;;23.85;9.60;;;;;;;15.16;26.24;101125.75;4992394;28;20046;-75
2022/04/13 07:22:31;;;;;;;27.50;11.40;;;;;;;15.74;25.62;101130.66;4995850;28;20141;-75
2022/04/13 07:24:58;;;;;;;25.33;10.98;;;;;;;16.97;24.33;101130.84;5002440;28;20042;-75
2022/04/13 07:27:24;;;;;;;25.25;10.75;;;;;;;16.53;24.64;101131.81;4998323;28;20457;-75
2022/04/13 07:29:51;;;;;;;23.27;10.40;;;;;;;16.65;24.52;101135.72;4991335;28;20419;-75
2022/04/13 07:32:18;;;;;;;21.92;10.52;;;;;;;16.89;24.06;101134.53;4993856;28;20200;-75
2022/04/13 07:34:44;;;;;;;21.90;10.50;;;;;;;16.15;24.67;101137.31;4990746;28;20050;-75
2022/04/13 07:37:11;;;;;;;19.92;9.27;;;;;;;17.04;23.98;101131.78;5009662;28;20152;-75
2022/04/13 07:39:37;;;;;;;21.05;10.18;;;;;;;17.69;23.29;101139.91;4992261;28;20129;-75
2022/04/13 07:42:04;;;;;;;29.00;10.57;;;;;;;17.63;22.92;101135.25;4991728;28;20050;-75
2022/04/13 07:44:30;;;;;;;18.10;9.13;;;;;;;16.23;24.51;101141.81;4991092;28;20097;-75
2022/04/13 07:47:20;;;;;;;20.38;9.73;;;;;;;17.56;23.15;101149.59;5011018;28;20049;-75
2022/04/13 07:49:47;;;;;;;29.35;11.15;;;;;;;17.55;23.20;101139.78;5009189;28;20394;-75
2022/04/13 07:52:20;;;;;;;17.63;9.95;;;;;;;16.91;24.56;101142.47;4998552;28;20121;-78
2022/04/13 07:54:47;;;;;;;20.85;10.27;;;;;;;16.87;24.06;101141.16;5008573;28;20084;-76
2022/04/13 07:57:13;;;;;;;21.98;10.73;;;;;;;17.75;23.14;101144.50;4996218;28;20104;-75
2022/04/13 07:59:41;;;;;;;21.10;10.75;;;;;;;18.35;22.64;101147.66;5003058;28;20569;-75
2022/04/13 08:02:08;;;;;;;19.48;10.57;;;;;;;16.86;24.33;101136.78;5007770;28;20450;-75
2022/04/13 08:04:35;;;;;;;21.60;10.70;;;;;;;18.36;22.61;101142.00;4994965;28;20407;-75
2022/04/13 08:07:02;;;;;;;21.05;10.82;;;;;;;17.72;23.31;101150.34;4998096;28;20208;-75
2022/04/13 08:09:29;;;;;;;21.00;11.25;;;;;;;16.79;24.10;101144.84;4996953;28;20108;-75
2022/04/13 08:11:56;;;;;;;22.25;12.13;;;;;;;17.11;24.00;101151.66;5008772;28;20496;-76
2022/04/13 08:14:23;;;;;;;21.33;10.23;;;;;;;16.54;25.05;101143.47;5007898;28;20095;-76
2022/04/13 08:16:50;;;;;;;19.80;11.07;;;;;;;18.15;22.80;101145.66;4993450;28;20388;-76
2022/04/13 08:19:17;;;;;;;20.63;11.13;;;;;;;16.89;23.73;101155.38;4994441;28;20084;-75
2022/04/13 08:21:43;;;;;;;23.80;11.10;;;;;;;16.87;24.07;101149.31;4995307;28;20069;-75
2022/04/13 08:24:10;;;;;;;22.85;11.45;;;;;;;17.34;23.72;101153.38;4998811;28;20074;-76
2022/04/13 08:26:36;;;;;;;21.58;11.27;;;;;;;16.47;24.79;101151.53;5009564;28;20092;-75
2022/04/13 08:29:03;;;;;;;21.08;10.60;;;;;;;16.61;24.44;101150.69;4991799;28;20046;-75
2022/04/13 08:31:30;;;;;;;27.20;10.93;;;;;;;16.38;24.74;101148.06;4996685;28;20534;-76
2022/04/13 08:33:56;;;;;;;24.20;10.88;;;;;;;17.45;23.74;101147.41;5011387;28;20046;-75
2022/04/13 08:36:23;;;;;;;23.05;10.75;;;;;;;17.02;24.05;101147.38;5006691;28;20073;-74
2022/04/13 08:38:49;;;;;;;22.20;10.98;;;;;;;16.60;24.66;101162.53;5009493;28;20072;-74
2022/04/13 08:41:24;;;;;;;19.55;10.35;;;;;;;17.64;23.76;101145.06;4995901;28;25134;-75
2022/04/13 08:43:56;;;;;;;19.98;11.13;;;;;;;18.26;22.83;101152.41;4992088;28;20078;-75
2022/04/13 08:46:26;;;;;;;20.88;10.02;;;;;;;19.70;21.39;101149.47;4992003;28;20046;-75
2022/04/13 08:48:56;;;;;;;20.25;11.15;;;;;;;19.11;21.44;101151.06;4991899;28;20046;-75
2022/04/13 08:51:44;;;;;;;21.17;11.00;;;;;;;19.39;21.67;101153.63;4991800;28;20046;-75
2022/04/13 08:54:17;;;;;;;23.95;11.30;;;;;;;19.58;21.13;101146.50;4991838;28;20077;-76
2022/04/13 08:56:47;;;;;;;24.55;11.15;;;;;;;20.79;20.32;101135.13;4993941;28;20093;-75
2022/04/13 08:59:41;;;;;;;28.98;11.15;;;;;;;19.61;21.29;101137.91;5000115;28;20049;-75
2022/04/13 09:02:21;;;;;;;22.00;10.63;;;;;;;19.83;21.16;101132.25;4992483;28;20057;-75
2022/04/13 09:04:49;;;;;;;17.90;10.52;;;;;;;20.62;20.40;101132.06;4997850;28;20057;-75
2022/04/13 09:07:17;;;;;;;22.67;10.23;;;;;;;19.67;21.29;101139.84;5006796;28;20080;-75
2022/04/13 09:09:49;;;;;;;20.58;10.93;;;;;;;21.67;19.45;101128.00;4987955;28;20038;-76
2022/04/13 09:12:18;;;;;;;19.48;9.95;;;;;;;21.79;19.26;101118.88;4997500;28;20532;-76
2022/04/13 09:14:45;;;;;;;20.73;11.05;;;;;;;23.34;18.08;101123.03;4995904;28;20121;-75
2022/04/13 09:17:12;;;;;;;18.60;11.30;;;;;;;23.12;18.42;101117.28;4994511;28;20081;-75
2022/04/13 09:19:38;;;;;;;19.70;10.23;;;;;;;22.17;18.99;101122.47;4994718;28;20121;-75
2022/04/13 09:22:05;;;;;;;24.83;11.20;;;;;;;20.80;19.84;101116.84;5014285;28;20096;-75
2022/04/13 09:24:32;;;;;;;20.10;10.18;;;;;;;22.37;18.94;101122.25;5015489;28;20073;-75
2022/04/13 09:26:59;;;;;;;22.02;10.88;;;;;;;21.45;19.60;101113.91;5013632;28;20172;-75
2022/04/13 09:29:25;;;;;;;17.95;10.65;;;;;;;19.57;21.86;101122.22;5005617;28;20405;-73
2022/04/13 09:31:52;;;;;;;18.80;10.05;;;;;;;21.74;19.76;101123.34;5005417;28;20053;-76
2022/04/13 09:34:18;;;;;;;23.17;11.10;;;;;;;21.98;19.25;101124.34;5003620;28;20054;-76
2022/04/13 09:36:45;;;;;;;20.00;10.75;;;;;;;21.27;19.71;101120.16;4995082;28;20133;-76
2022/04/13 09:39:11;;;;;;;22.15;11.50;;;;;;;21.26;19.81;101122.06;4985249;28;20046;-76
2022/04/13 09:41:38;;;;;;;22.52;11.20;;;;;;;19.29;21.64;101126.00;4994426;28;20061;-76
2022/04/13 09:44:15;;;;;;;22.85;10.88;;;;;;;20.77;20.40;101109.16;4995386;28;20129;-76
2022/04/13 09:46:42;;;;;;;20.58;10.95;;;;;;;21.84;19.35;101110.84;5003849;28;20152;-75
2022/04/13 09:49:10;;;;;;;19.48;10.27;;;;;;;20.35;20.10;101105.94;5014539;28;20046;-75
2022/04/13 09:51:57;;;;;;;19.65;10.68;;;;;;;21.25;19.96;101112.19;5013453;28;20054;-77
2022/04/13 09:54:29;;;;;;;26.13;11.32;;;;;;;21.61;19.73;101113.34;5033425;28;20045;-75
2022/04/13 09:56:55;;;;;;;19.05;10.77;;;;;;;22.80;18.71;101106.53;5035520;28;20128;-76
2022/04/13 09:59:29;;;;;;;19.90;10.73;;;;;;;22.37;18.67;101103.94;5034785;28;20042;-76
2022/04/13 10:01:57;;;;;;;21.67;10.35;;;;;;;22.67;18.70;101105.88;5033971;28;20051;-76
2022/04/13 10:04:25;;;;;;;17.33;10.57;;;;;;;24.13;17.17;101109.00;5009228;28;20125;-76
2022/04/13 10:06:52;;;;;;;19.75;11.07;;;;;;;24.67;16.86;101101.31;5015211;28;20100;-76
2022/04/13 10:09:19;;;;;;;15.52;9.52;;;;;;;21.87;19.18;101100.53;5015113;28;20461;-75
2022/04/13 10:12:03;;;;;;;18.90;10.13;;;;;;;22.42;19.01;101103.25;5019923;28;20048;-76
2022/04/13 10:14:31;;;;;;;21.65;11.05;;;;;;;22.88;18.45;101101.81;5014207;28;20042;-76
2022/04/13 10:17:07;;;;;;;19.38;9.93;;;;;;;23.36;17.89;101098.97;5015271;28;20073;-76
2022/04/13 10:19:35;;;;;;;18.30;10.63;;;;;;;23.96;17.48;101090.53;5015178;28;20104;-76
2022/04/13 10:22:02;;;;;;;15.70;9.55;;;;;;;23.98;17.22;101095.78;5015847;28;20080;-76
2022/04/13 10:24:34;;;;;;;20.65;11.27;;;;;;;22.80;18.26;101101.06;5015642;28;20065;-76
2022/04/13 10:27:08;;;;;;;20.63;11.15;;;;;;;22.67;18.76;101095.81;5012197;28;20042;-76
2022/04/13 10:29:37;;;;;;;19.83;10.57;;;;;;;23.37;17.89;101105.28;5012478;28;20046;-76
2022/04/13 10:32:18;;;;;;;22.38;10.10;;;;;;;23.68;17.34;101101.38;5012862;28;20483;-76
2022/04/13 10:34:49;;;;;;;15.32;9.63;;;;;;;23.04;18.24;101101.97;5013371;28;20045;-75
2022/04/13 10:37:19;;;;;;;16.10;10.27;;;;;;;21.74;19.54;101098.75;5015204;28;20061;-75
2022/04/13 10:39:47;;;;;;;17.55;10.43;;;;;;;21.63;20.21;101103.03;5033652;28;20048;-75
2022/04/13 10:42:15;;;;;;;17.55;9.30;;;;;;;22.40;19.66;101091.72;5035168;28;20125;-75
2022/04/13 10:44:46;;;;;;;16.85;9.82;;;;;;;23.21;18.42;101090.38;5033031;28;20120;-75
2022/04/13 10:47:19;;;;;;;16.80;10.37;;;;;;;23.66;17.94;101092.56;5033600;28;20092;-76
2022/04/13 10:49:57;;;;;;;20.20;8.93;;;;;;;23.98;17.49;101085.63;5034013;28;20041;-75
2022/04/13 10:52:28;;;;;;;17.58;9.23;;;;;;;24.01;17.62;101086.25;5033601;28;20076;-75
2022/04/13 10:54:57;;;;;;;;;;;;;;;24.43;17.36;101089.59;5034428;28;20190;-75
2022/04/13 10:57:28;;;;;;;17.55;9.63;;;;;;;24.89;17.27;101090.50;5034393;28;20365;-75
2022/04/13 10:59:59;;;;;;;15.73;9.57;;;;;;;24.98;17.14;101082.69;5034166;28;20448;-75
2022/04/13 11:02:36;;;;;;;17.10;9.70;;;;;;;23.96;17.71;101081.50;5033566;28;20077;-76
2022/04/13 11:05:03;;;;;;;18.20;9.32;;;;;;;24.55;17.44;101079.44;5014829;28;20050;-75
2022/04/13 11:07:31;;;;;;;16.15;8.68;;;;;;;24.52;17.53;101077.19;5014700;28;20052;-75
2022/04/13 11:10:02;;;;;;;16.80;9.50;;;;;;;25.01;16.88;101074.81;5010538;28;20052;-76
2022/04/13 11:12:31;;;;;;;20.00;10.18;;;;;;;24.78;17.46;101075.72;5020589;28;20054;-76
2022/04/13 11:15:02;;;;;;;20.08;9.48;;;;;;;23.53;18.29;101076.38;4999240;28;20034;-75
2022/04/13 11:17:29;;;;;;;20.42;11.23;;;;;;;24.13;18.13;101073.34;5014579;28;20560;-75
2022/04/13 11:20:22;;;;;;;20.58;8.85;;;;;;;24.41;17.66;101078.06;5013332;28;20046;-76
2022/04/13 11:23:15;;;;;;;13.80;8.30;;;;;;;25.34;16.75;101075.91;5013468;28;20490;-76